TAF KLWS
AMD KLWS 081947Z 0820/0918 27018G26KT P6SM FEW060 BKN080 FM090130 23008KT P6SM FEW080 SCT250 FM091100 23005KT P6SM BKN040 BKN100=
METAR KLWS
WC KLWS
WS KLWS
WV KLWS